| time (UTC) | temp F | wind direction | speed MPH | gust MPH | rain 1hr in | rain 24hr in | rain mn in | humidity % | barometer mb |
| 20260510220513 | 62 | 257 | 2.0 | 6.0 | 0.00 | 0.35 | 0.23 | 81 | 1013.2 |
| 20260510220032 | 63 | 0 | 1.0 | 7.0 | 0.00 | 0.35 | 0.23 | 79 | 1013.2 |
| 20260510215512 | 63 | 297 | 3.0 | 7.0 | 0.00 | 0.41 | 0.23 | 79 | 1013.3 |
| 20260510215013 | 63 | 0 | 0.0 | 7.0 | 0.00 | 0.41 | 0.23 | 80 | 1013.2 |
| 20260510214531 | 62 | 0 | 0.0 | 7.0 | 0.00 | 0.41 | 0.23 | 79 | 1013.3 |
| 20260510214014 | 62 | 269 | 1.0 | 8.0 | 0.00 | 0.41 | 0.23 | 80 | 1013.4 |
| 20260510213512 | 62 | 0 | 0.0 | 9.0 | 0.00 | 0.41 | 0.23 | 79 | 1013.4 |
| 20260510213035 | 62 | 223 | 4.0 | 9.0 | 0.00 | 0.41 | 0.23 | 80 | 1013.4 |
| 20260510212515 | 62 | 190 | 1.0 | 8.0 | 0.00 | 0.41 | 0.23 | 80 | 1013.4 |
| 20260510212012 | 62 | 0 | 2.0 | 12.0 | 0.00 | 0.41 | 0.23 | 80 | 1013.4 |
| 20260510211537 | 61 | 300 | 3.0 | 12.0 | 0.00 | 0.41 | 0.23 | 81 | 1013.4 |
| 20260510211015 | 61 | 306 | 6.0 | 12.0 | 0.00 | 0.41 | 0.23 | 81 | 1013.3 |
| 20260510210515 | 61 | 0 | 0.0 | 11.0 | 0.00 | 0.41 | 0.23 | 84 | 1013.3 |
| 20260510210031 | 61 | 306 | 5.0 | 11.0 | 0.00 | 0.41 | 0.23 | 84 | 1013.3 |
| 20260510205515 | 60 | 321 | 5.0 | 11.0 | 0.00 | 0.43 | 0.23 | 86 | 1013.2 |
| 20260510205012 | 60 | 279 | 1.0 | 11.0 | 0.00 | 0.43 | 0.23 | 89 | 1013.2 |
| 20260510204535 | 60 | 325 | 2.0 | 9.0 | 0.01 | 0.43 | 0.23 | 89 | 1013.2 |
| 20260510204014 | 59 | 296 | 1.0 | 9.0 | 0.04 | 0.43 | 0.23 | 90 | 1013.2 |
| 20260510203514 | 59 | 279 | 4.0 | 12.0 | 0.05 | 0.43 | 0.23 | 90 | 1013.2 |
| 20260510203031 | 58 | 334 | 5.0 | 12.0 | 0.05 | 0.43 | 0.23 | 91 | 1013.2 |
| 20260510202512 | 58 | 315 | 5.0 | 12.0 | 0.07 | 0.43 | 0.23 | 93 | 1013.2 |
| 20260510202012 | 58 | 272 | 5.0 | 11.0 | 0.13 | 0.43 | 0.23 | 95 | 1013.3 |
| 20260510201531 | 58 | 296 | 5.0 | 11.0 | 0.21 | 0.43 | 0.23 | 95 | 1013.3 |
| 20260510201013 | 57 | 296 | 4.0 | 12.0 | 0.23 | 0.43 | 0.23 | 95 | 1013.2 |
| 20260510200514 | 56 | 270 | 5.0 | 13.0 | 0.23 | 0.43 | 0.23 | 95 | 1013.2 |
| 20260510200029 | 55 | 301 | 6.0 | 15.0 | 0.23 | 0.43 | 0.23 | 95 | 1013.2 |
| 20260510195513 | 55 | 293 | 8.0 | 19.0 | 0.23 | 0.49 | 0.23 | 94 | 1013.0 |
| 20260510195016 | 55 | 309 | 10.0 | 19.0 | 0.23 | 0.49 | 0.23 | 93 | 1013.0 |
| 20260510194531 | 55 | 309 | 10.0 | 19.0 | 0.21 | 0.47 | 0.21 | 93 | 1013.1 |
| 20260510194012 | 55 | 296 | 11.0 | 19.0 | 0.19 | 0.45 | 0.19 | 92 | 1013.3 |
| 20260510193513 | 55 | 295 | 9.0 | 18.0 | 0.18 | 0.44 | 0.18 | 91 | 1013.1 |
| 20260510193033 | 56 | 306 | 11.0 | 21.0 | 0.17 | 0.43 | 0.17 | 89 | 1013.2 |
| 20260510192513 | 57 | 301 | 14.0 | 27.0 | 0.15 | 0.41 | 0.15 | 86 | 1013.2 |
| 20260510192015 | 60 | 284 | 13.0 | 27.0 | 0.08 | 0.34 | 0.08 | 79 | 1013.5 |
| 20260510191536 | 65 | 319 | 12.0 | 27.0 | 0.00 | 0.26 | 0.00 | 71 | 1013.4 |
| 20260510191014 | 66 | 177 | 7.0 | 17.0 | 0.00 | 0.26 | 0.00 | 66 | 1012.6 |
| 20260510190511 | 67 | 192 | 5.0 | 14.0 | 0.00 | 0.26 | 0.00 | 65 | 1012.5 |
| 20260510190043 | 67 | 175 | 8.0 | 18.0 | 0.00 | 0.26 | 0.00 | 64 | 1012.3 |
| 20260510185511 | 68 | 213 | 9.0 | 18.0 | 0.00 | 0.37 | 0.00 | 62 | 1012.4 |
| 20260510185012 | 68 | 225 | 7.0 | 16.0 | 0.00 | 0.37 | 0.00 | 64 | 1012.5 |
| 20260510184531 | 68 | 231 | 6.0 | 16.0 | 0.00 | 0.37 | 0.00 | 63 | 1012.5 |
| 20260510184016 | 68 | 213 | 7.0 | 16.0 | 0.00 | 0.37 | 0.00 | 63 | 1012.6 |
| 20260510183513 | 67 | 237 | 6.0 | 16.0 | 0.00 | 0.37 | 0.00 | 65 | 1012.7 |
| 20260510183031 | 67 | 209 | 7.0 | 16.0 | 0.00 | 0.37 | 0.00 | 65 | 1012.7 |
| 20260510182512 | 67 | 217 | 8.0 | 18.0 | 0.00 | 0.37 | 0.00 | 65 | 1012.9 |
| 20260510182013 | 67 | 223 | 5.0 | 18.0 | 0.00 | 0.37 | 0.00 | 64 | 1012.9 |
| 20260510181530 | 67 | 182 | 4.0 | 17.0 | 0.00 | 0.37 | 0.00 | 66 | 1012.8 |
| 20260510181013 | 67 | 184 | 5.0 | 17.0 | 0.00 | 0.37 | 0.00 | 65 | 1012.9 |
| 20260510180513 | 67 | 205 | 9.0 | 16.0 | 0.00 | 0.37 | 0.00 | 64 | 1013.3 |
| 20260510180033 | 66 | 194 | 5.0 | 16.0 | 0.00 | 0.37 | 0.00 | 69 | 1013.3 |
| 20260510175516 | 66 | 191 | 5.0 | 16.0 | 0.00 | 0.49 | 0.00 | 67 | 1013.3 |
| 20260510175014 | 66 | 188 | 6.0 | 16.0 | 0.00 | 0.49 | 0.00 | 69 | 1013.4 |
| 20260510174530 | 65 | 234 | 4.0 | 11.0 | 0.00 | 0.49 | 0.00 | 68 | 1013.4 |
| 20260510174014 | 66 | 223 | 7.0 | 11.0 | 0.00 | 0.49 | 0.00 | 68 | 1013.6 |
| 20260510173515 | 65 | 263 | 5.0 | 11.0 | 0.00 | 0.49 | 0.00 | 69 | 1013.6 |
| 20260510173032 | 65 | 196 | 4.0 | 12.0 | 0.00 | 0.49 | 0.00 | 67 | 1013.6 |
| 20260510172513 | 65 | 239 | 6.0 | 12.0 | 0.00 | 0.49 | 0.00 | 67 | 1013.7 |
| 20260510172013 | 65 | 206 | 5.0 | 11.0 | 0.00 | 0.49 | 0.00 | 68 | 1013.6 |
| 20260510171543 | 64 | 251 | 5.0 | 13.0 | 0.00 | 0.49 | 0.00 | 69 | 1013.6 |
| 20260510171012 | 64 | 196 | 6.0 | 13.0 | 0.00 | 0.49 | 0.00 | 70 | 1013.6 |
| 20260510170513 | 64 | 225 | 3.0 | 12.0 | 0.00 | 0.49 | 0.00 | 73 | 1013.6 |
| 20260510170029 | 64 | 233 | 4.0 | 11.0 | 0.00 | 0.49 | 0.00 | 74 | 1013.7 |
| 20260510165513 | 64 | 214 | 5.0 | 11.0 | 0.00 | 0.52 | 0.00 | 73 | 1013.8 |
| 20260510165013 | 63 | 206 | 2.0 | 11.0 | 0.00 | 0.52 | 0.00 | 76 | 1013.7 |
| 20260510164531 | 63 | 202 | 6.0 | 11.0 | 0.00 | 0.52 | 0.00 | 77 | 1013.8 |
| 20260510164012 | 63 | 219 | 2.0 | 10.0 | 0.00 | 0.52 | 0.00 | 76 | 1013.8 |
| 20260510163511 | 63 | 221 | 5.0 | 15.0 | 0.00 | 0.52 | 0.00 | 77 | 1013.8 |
| 20260510163038 | 62 | 205 | 3.0 | 15.0 | 0.00 | 0.52 | 0.00 | 78 | 1013.9 |
| 20260510162513 | 61 | 227 | 6.0 | 15.0 | 0.00 | 0.52 | 0.00 | 80 | 1013.9 |
| 20260510162018 | 61 | 202 | 5.0 | 15.0 | 0.00 | 0.52 | 0.00 | 80 | 1013.9 |
| 20260510161531 | 60 | 196 | 7.0 | 15.0 | 0.00 | 0.52 | 0.00 | 79 | 1014.0 |
| 20260510161012 | 60 | 360 | 3.0 | 10.0 | 0.00 | 0.52 | 0.00 | 82 | 1013.9 |
| 20260510160513 | 60 | 210 | 3.0 | 10.0 | 0.00 | 0.52 | 0.00 | 83 | 1013.9 |
| 20260510160034 | 59 | 239 | 2.0 | 15.0 | 0.00 | 0.52 | 0.00 | 86 | 1013.9 |
| 20260510155512 | 58 | 244 | 5.0 | 15.0 | 0.00 | 0.52 | 0.00 | 86 | 1013.8 |
| 20260510155013 | 58 | 223 | 4.0 | 11.0 | 0.00 | 0.52 | 0.00 | 89 | 1013.8 |
| 20260510154533 | 57 | 230 | 6.0 | 11.0 | 0.00 | 0.52 | 0.00 | 91 | 1013.9 |
| 20260510154014 | 56 | 192 | 3.0 | 8.0 | 0.00 | 0.52 | 0.00 | 92 | 1014.0 |
| 20260510153512 | 56 | 219 | 4.0 | 11.0 | 0.00 | 0.52 | 0.00 | 94 | 1014.1 |
| 20260510153038 | 56 | 194 | 4.0 | 11.0 | 0.00 | 0.52 | 0.00 | 96 | 1014.1 |
| 20260510152514 | 55 | 148 | 3.0 | 12.0 | 0.00 | 0.52 | 0.00 | 97 | 1014.2 |
| 20260510152015 | 55 | 230 | 5.0 | 12.0 | 0.00 | 0.52 | 0.00 | 97 | 1014.3 |
| 20260510151535 | 54 | 209 | 5.0 | 12.0 | 0.00 | 0.52 | 0.00 | 98 | 1014.5 |
| 20260510151013 | 54 | 225 | 6.0 | 12.0 | 0.00 | 0.52 | 0.00 | 98 | 1014.5 |
| 20260510150514 | 54 | 232 | 3.0 | 11.0 | 0.00 | 0.52 | 0.00 | 98 | 1014.5 |
| 20260510150033 | 54 | 227 | 5.0 | 11.0 | 0.00 | 0.52 | 0.00 | 98 | 1014.6 |
| 20260510145511 | 55 | 207 | 2.0 | 11.0 | 0.00 | 0.52 | 0.00 | 99 | 1014.5 |
| 20260510145012 | 55 | 186 | 4.0 | 11.0 | 0.00 | 0.52 | 0.00 | 99 | 1014.4 |
| 20260510144529 | 54 | 178 | 4.0 | 11.0 | 0.00 | 0.52 | 0.00 | 99 | 1014.4 |
| 20260510144014 | 53 | 205 | 4.0 | 11.0 | 0.00 | 0.52 | 0.00 | 98 | 1014.2 |
| 20260510143512 | 53 | 223 | 5.0 | 11.0 | 0.00 | 0.52 | 0.00 | 99 | 1014.2 |
| 20260510143032 | 53 | 253 | 4.0 | 11.0 | 0.00 | 0.52 | 0.00 | 98 | 1014.1 |
| 20260510142513 | 53 | 213 | 4.0 | 10.0 | 0.00 | 0.52 | 0.00 | 98 | 1014.1 |
| 20260510142014 | 52 | 219 | 3.0 | 9.0 | 0.00 | 0.52 | 0.00 | 99 | 1014.2 |
| 20260510141530 | 52 | 252 | 5.0 | 11.0 | 0.00 | 0.52 | 0.00 | 99 | 1014.3 |
| 20260510141013 | 52 | 254 | 4.0 | 13.0 | 0.00 | 0.52 | 0.00 | 99 | 1014.3 |
| 20260510140512 | 52 | 250 | 6.0 | 13.0 | 0.00 | 0.52 | 0.00 | 99 | 1014.2 |
| 20260510140032 | 52 | 360 | 5.0 | 12.0 | 0.00 | 0.52 | 0.00 | 99 | 1014.2 |
| 20260510135533 | 52 | 360 | 6.0 | 13.0 | 0.00 | 0.52 | 0.00 | 99 | 1014.2 |
| 20260510135012 | 52 | 360 | 6.0 | 13.0 | 0.00 | 0.52 | 0.00 | 99 | 1014.4 |
| 20260510134532 | 51 | 275 | 5.0 | 15.0 | 0.00 | 0.52 | 0.00 | 99 | 1014.4 |
| 20260510134010 | 51 | 238 | 7.0 | 15.0 | 0.00 | 0.52 | 0.00 | 99 | 1014.4 |
| 20260510133512 | 51 | 293 | 9.0 | 15.0 | 0.00 | 0.52 | 0.00 | 99 | 1014.1 |
| 20260510133032 | 51 | 360 | 6.0 | 12.0 | 0.00 | 0.52 | 0.00 | 99 | 1014.1 |
| 20260510132512 | 51 | 360 | 5.0 | 12.0 | 0.00 | 0.52 | 0.00 | 99 | 1013.9 |
| 20260510132012 | 51 | 243 | 5.0 | 12.0 | 0.00 | 0.52 | 0.00 | 99 | 1013.8 |
| 20260510131530 | 50 | 360 | 3.0 | 10.0 | 0.00 | 0.52 | 0.00 | 99 | 1013.9 |
| 20260510131016 | 50 | 219 | 5.0 | 14.0 | 0.00 | 0.52 | 0.00 | 99 | 1014.1 |
| 20260510130514 | 50 | 360 | 5.0 | 14.0 | 0.00 | 0.52 | 0.00 | 99 | 1014.1 |
| 20260510130030 | 50 | 239 | 6.0 | 13.0 | 0.00 | 0.52 | 0.00 | 98 | 1014.1 |
| 20260510125515 | 50 | 360 | 4.0 | 14.0 | 0.00 | 0.52 | 0.00 | 98 | 1014.4 |
| 20260510125013 | 50 | 360 | 4.0 | 14.0 | 0.00 | 0.52 | 0.00 | 99 | 1014.4 |
| 20260510124530 | 49 | 228 | 5.0 | 14.0 | 0.00 | 0.52 | 0.00 | 99 | 1014.5 |
| 20260510124014 | 49 | 360 | 3.0 | 13.0 | 0.00 | 0.52 | 0.00 | 98 | 1014.3 |
| 20260510123512 | 49 | 360 | 7.0 | 14.0 | 0.00 | 0.52 | 0.00 | 98 | 1014.3 |
| 20260510123033 | 49 | 229 | 6.0 | 14.0 | 0.00 | 0.52 | 0.00 | 98 | 1014.3 |
| 20260510122513 | 49 | 259 | 7.0 | 14.0 | 0.00 | 0.52 | 0.00 | 98 | 1014.4 |
| 20260510122012 | 49 | 235 | 5.0 | 13.0 | 0.00 | 0.52 | 0.00 | 99 | 1014.4 |
| 20260510121531 | 49 | 228 | 8.0 | 14.0 | 0.00 | 0.52 | 0.00 | 99 | 1014.6 |
| 20260510121014 | 48 | 238 | 5.0 | 14.0 | 0.00 | 0.52 | 0.00 | 98 | 1014.7 |
| 20260510120515 | 48 | 269 | 8.0 | 13.0 | 0.00 | 0.52 | 0.00 | 98 | 1014.3 |
| 20260510120031 | 48 | 360 | 4.0 | 12.0 | 0.00 | 0.52 | 0.00 | 98 | 1014.1 |
| 20260510115513 | 48 | 229 | 6.0 | 12.0 | 0.00 | 0.52 | 0.00 | 98 | 1013.9 |
| 20260510115013 | 48 | 224 | 4.0 | 12.0 | 0.00 | 0.52 | 0.00 | 98 | 1013.8 |
| 20260510114532 | 48 | 360 | 2.0 | 13.0 | 0.00 | 0.52 | 0.00 | 98 | 1013.8 |
| 20260510114015 | 48 | 212 | 3.0 | 13.0 | 0.00 | 0.52 | 0.00 | 98 | 1013.9 |
| 20260510113514 | 48 | 228 | 5.0 | 12.0 | 0.00 | 0.52 | 0.00 | 98 | 1014.0 |
| 20260510113038 | 48 | 223 | 6.0 | 12.0 | 0.00 | 0.52 | 0.00 | 98 | 1013.9 |
| 20260510112513 | 48 | 225 | 4.0 | 13.0 | 0.00 | 0.52 | 0.00 | 98 | 1013.8 |
| 20260510112015 | 48 | 229 | 3.0 | 13.0 | 0.00 | 0.52 | 0.00 | 98 | 1013.8 |
| 20260510111530 | 48 | 360 | 5.0 | 13.0 | 0.00 | 0.52 | 0.00 | 98 | 1013.8 |
| 20260510111011 | 48 | 217 | 7.0 | 14.0 | 0.00 | 0.52 | 0.00 | 98 | 1013.6 |
| 20260510110515 | 48 | 360 | 5.0 | 14.0 | 0.00 | 0.52 | 0.00 | 98 | 1013.6 |
| 20260510110046 | 48 | 360 | 6.0 | 13.0 | 0.00 | 0.52 | 0.00 | 98 | 1013.2 |
| 20260510105514 | 47 | 238 | 4.0 | 12.0 | 0.00 | 0.52 | 0.00 | 98 | 1013.2 |
| 20260510105012 | 47 | 222 | 6.0 | 12.0 | 0.00 | 0.52 | 0.00 | 98 | 1013.0 |
| 20260510104532 | 47 | 217 | 4.0 | 12.0 | 0.00 | 0.52 | 0.00 | 98 | 1012.9 |
| 20260510104013 | 47 | 196 | 4.0 | 12.0 | 0.00 | 0.52 | 0.00 | 98 | 1012.9 |
| 20260510103513 | 47 | 203 | 4.0 | 13.0 | 0.00 | 0.52 | 0.00 | 98 | 1012.9 |
| 20260510103029 | 47 | 213 | 6.0 | 13.0 | 0.00 | 0.52 | 0.00 | 98 | 1012.9 |
| 20260510102512 | 47 | 223 | 5.0 | 12.0 | 0.00 | 0.52 | 0.00 | 98 | 1012.9 |
| 20260510102013 | 47 | 227 | 6.0 | 12.0 | 0.00 | 0.52 | 0.00 | 98 | 1012.9 |
| 20260510101531 | 47 | 198 | 5.0 | 10.0 | 0.00 | 0.52 | 0.00 | 98 | 1012.8 |
| 20260510101014 | 47 | 203 | 2.0 | 9.0 | 0.00 | 0.52 | 0.00 | 98 | 1012.8 |
| 20260510100514 | 47 | 198 | 3.0 | 9.0 | 0.00 | 0.52 | 0.00 | 98 | 1012.8 |
| 20260510100045 | 47 | 202 | 4.0 | 11.0 | 0.00 | 0.52 | 0.00 | 98 | 1012.9 |
| 20260510095512 | 47 | 213 | 5.0 | 11.0 | 0.00 | 0.52 | 0.00 | 98 | 1013.0 |
| 20260510095012 | 47 | 230 | 4.0 | 9.0 | 0.00 | 0.52 | 0.00 | 98 | 1012.5 |
| 20260510094539 | 47 | 201 | 3.0 | 9.0 | 0.00 | 0.52 | 0.00 | 98 | 1012.3 |
| 20260510094012 | 47 | 202 | 2.0 | 8.0 | 0.00 | 0.52 | 0.00 | 98 | 1012.7 |
| 20260510093511 | 47 | 198 | 3.0 | 8.0 | 0.00 | 0.52 | 0.00 | 98 | 1012.8 |
| 20260510093033 | 47 | 178 | 3.0 | 8.0 | 0.00 | 0.52 | 0.00 | 98 | 1012.8 |
| 20260510092513 | 47 | 180 | 2.0 | 6.0 | 0.00 | 0.52 | 0.00 | 98 | 1012.8 |
| 20260510092017 | 46 | 207 | 1.0 | 5.0 | 0.00 | 0.52 | 0.00 | 98 | 1012.8 |
| 20260510091532 | 46 | 179 | 1.0 | 5.0 | 0.00 | 0.52 | 0.00 | 98 | 1012.7 |
| 20260510091013 | 46 | 0 | 1.0 | 5.0 | 0.00 | 0.52 | 0.00 | 98 | 1012.8 |
| 20260510090513 | 46 | 212 | 1.0 | 4.0 | 0.00 | 0.52 | 0.00 | 98 | 1012.9 |
| 20260510090030 | 46 | 217 | 1.0 | 5.0 | 0.00 | 0.52 | 0.00 | 98 | 1012.8 |
| 20260510085511 | 46 | 218 | 2.0 | 5.0 | 0.00 | 0.52 | 0.00 | 98 | 1012.9 |
| 20260510085012 | 46 | 242 | 0.0 | 3.0 | 0.00 | 0.52 | 0.00 | 98 | 1013.1 |
| 20260510084535 | 46 | 243 | 1.0 | 4.0 | 0.00 | 0.52 | 0.00 | 98 | 1013.0 |
| 20260510084013 | 46 | 0 | 1.0 | 4.0 | 0.00 | 0.52 | 0.00 | 98 | 1012.9 |
| 20260510083517 | 46 | 253 | 1.0 | 4.0 | 0.00 | 0.52 | 0.00 | 98 | 1013.0 |
| 20260510083030 | 46 | 253 | 1.0 | 4.0 | 0.00 | 0.52 | 0.00 | 98 | 1012.9 |
| 20260510082512 | 46 | 236 | 1.0 | 3.0 | 0.00 | 0.52 | 0.00 | 98 | 1012.9 |
| 20260510082014 | 46 | 0 | 0.0 | 0.0 | 0.00 | 0.52 | 0.00 | 98 | 1012.6 |
| 20260510081538 | 46 | 0 | 0.0 | 3.0 | 0.00 | 0.52 | 0.00 | 98 | 1012.7 |
| 20260510081011 | 46 | 0 | 0.0 | 3.0 | 0.00 | 0.52 | 0.00 | 98 | 1012.7 |
| 20260510080516 | 46 | 0 | 1.0 | 4.0 | 0.00 | 0.52 | 0.00 | 98 | 1012.7 |
| 20260510080048 | 46 | 214 | 0.0 | 4.0 | 0.00 | 0.52 | 0.00 | 98 | 1012.7 |
| 20260510075513 | 46 | 236 | 1.0 | 5.0 | 0.00 | 0.52 | 0.00 | 98 | 1012.9 |
| 20260510075014 | 46 | 238 | 2.0 | 5.0 | 0.00 | 0.52 | 0.00 | 98 | 1013.2 |
| 20260510074529 | 46 | 219 | 0.0 | 4.0 | 0.00 | 0.52 | 0.00 | 98 | 1013.2 |
| 20260510074104 | 46 | 211 | 1.0 | 5.0 | 0.00 | 0.52 | 0.00 | 98 | 1012.9 |
| 20260510073513 | 46 | 213 | 2.0 | 5.0 | 0.00 | 0.52 | 0.00 | 98 | 1012.9 |
| 20260510073039 | 46 | 204 | 2.0 | 7.0 | 0.00 | 0.52 | 0.00 | 98 | 1013.0 |
| 20260510072514 | 46 | 195 | 2.0 | 7.0 | 0.00 | 0.52 | 0.00 | 98 | 1012.9 |
| 20260510072014 | 46 | 174 | 2.0 | 7.0 | 0.00 | 0.52 | 0.00 | 98 | 1012.9 |
| 20260510071533 | 46 | 189 | 1.0 | 7.0 | 0.00 | 0.52 | 0.00 | 98 | 1012.8 |
| 20260510071011 | 46 | 190 | 2.0 | 7.0 | 0.00 | 0.52 | 0.00 | 98 | 1012.7 |
| 20260510070513 | 46 | 0 | 2.0 | 7.0 | 0.00 | 0.52 | 0.00 | 98 | 1012.7 |
| 20260510070042 | 46 | 0 | 0.0 | 7.0 | 0.00 | 0.52 | 0.00 | 98 | 1012.7 |
| 20260510065511 | 46 | 162 | 3.0 | 10.0 | 0.00 | 0.52 | 0.00 | 98 | 1012.7 |
| 20260510065017 | 46 | 134 | 5.0 | 10.0 | 0.00 | 0.52 | 0.00 | 98 | 1012.7 |
| 20260510064530 | 46 | 131 | 2.0 | 10.0 | 0.00 | 0.52 | 0.00 | 98 | 1012.7 |
| 20260510064015 | 46 | 131 | 4.0 | 10.0 | 0.00 | 0.52 | 0.00 | 98 | 1012.7 |
| 20260510063513 | 46 | 107 | 5.0 | 9.0 | 0.00 | 0.52 | 0.00 | 98 | 1012.8 |
| 20260510063036 | 46 | 139 | 5.0 | 9.0 | 0.00 | 0.52 | 0.00 | 98 | 1012.9 |
| 20260510062511 | 46 | 131 | 4.0 | 9.0 | 0.00 | 0.52 | 0.00 | 98 | 1012.9 |
| 20260510062015 | 46 | 130 | 3.0 | 8.0 | 0.00 | 0.52 | 0.00 | 98 | 1013.1 |
| 20260510061528 | 46 | 161 | 3.0 | 9.0 | 0.00 | 0.52 | 0.00 | 98 | 1013.2 |
| 20260510061013 | 46 | 161 | 4.0 | 9.0 | 0.00 | 0.52 | 0.00 | 98 | 1013.3 |
| 20260510060512 | 46 | 170 | 2.0 | 8.0 | 0.00 | 0.52 | 0.00 | 98 | 1013.4 |
| 20260510060039 | 46 | 0 | 3.0 | 8.0 | 0.00 | 0.52 | 0.00 | 98 | 1013.5 |
| 20260510055521 | 46 | 186 | 3.0 | 8.0 | 0.00 | 0.52 | 0.00 | 98 | 1013.6 |
| 20260510055012 | 46 | 0 | 3.0 | 8.0 | 0.00 | 0.52 | 0.00 | 98 | 1013.5 |
| 20260510054530 | 46 | 179 | 3.0 | 7.0 | 0.00 | 0.52 | 0.00 | 98 | 1013.4 |
| 20260510054011 | 46 | 188 | 2.0 | 8.0 | 0.00 | 0.52 | 0.00 | 98 | 1013.4 |
| 20260510053512 | 46 | 179 | 3.0 | 9.0 | 0.00 | 0.52 | 0.00 | 98 | 1013.6 |
| 20260510053030 | 46 | 167 | 4.0 | 10.0 | 0.00 | 0.52 | 0.00 | 98 | 1013.6 |
| 20260510052511 | 46 | 159 | 4.0 | 10.0 | 0.00 | 0.52 | 0.00 | 98 | 1013.7 |
| 20260510052012 | 45 | 169 | 3.0 | 10.0 | 0.00 | 0.52 | 0.00 | 98 | 1013.7 |
| 20260510051533 | 45 | 146 | 4.0 | 10.0 | 0.00 | 0.52 | 0.00 | 98 | 1013.7 |
| 20260510051015 | 45 | 150 | 3.0 | 10.0 | 0.00 | 0.52 | 0.00 | 98 | 1013.8 |
| 20260510050513 | 45 | 146 | 4.0 | 9.0 | 0.00 | 0.52 | 0.00 | 98 | 1013.7 |
| 20260510050029 | 45 | 155 | 4.0 | 13.0 | 0.00 | 0.52 | 0.00 | 98 | 1013.7 |
| 20260510045516 | 45 | 160 | 4.0 | 13.0 | 0.00 | 0.52 | 0.00 | 98 | 1013.6 |
| 20260510045012 | 45 | 190 | 6.0 | 12.0 | 0.01 | 0.52 | 0.00 | 98 | 1013.7 |
| 20260510044529 | 45 | 157 | 4.0 | 12.0 | 0.01 | 0.52 | 0.00 | 98 | 1013.6 |
| 20260510044018 | 45 | 124 | 4.0 | 11.0 | 0.01 | 0.52 | 0.00 | 98 | 1013.6 |
| 20260510043516 | 45 | 142 | 6.0 | 10.0 | 0.01 | 0.52 | 0.00 | 98 | 1013.6 |
| 20260510043031 | 45 | 138 | 5.0 | 11.0 | 0.01 | 0.52 | 0.00 | 98 | 1013.6 |
| 20260510042514 | 45 | 141 | 5.0 | 11.0 | 0.01 | 0.52 | 0.00 | 98 | 1013.7 |
| 20260510042013 | 45 | 147 | 6.0 | 12.0 | 0.01 | 0.52 | 0.00 | 98 | 1013.8 |
| 20260510041532 | 45 | 123 | 5.0 | 12.0 | 0.01 | 0.52 | 0.00 | 98 | 1013.9 |
| 20260510041011 | 45 | 170 | 5.0 | 12.0 | 0.01 | 0.52 | 0.00 | 98 | 1013.9 |
| 20260510040514 | 45 | 133 | 6.0 | 12.0 | 0.01 | 0.52 | 0.00 | 98 | 1013.9 |
| 20260510040032 | 45 | 153 | 5.0 | 11.0 | 0.01 | 0.52 | 0.00 | 98 | 1013.8 |
| 20260510035511 | 45 | 152 | 5.0 | 10.0 | 0.00 | 0.51 | 0.51 | 98 | 1013.8 |
| 20260510035012 | 45 | 163 | 4.0 | 10.0 | 0.00 | 0.51 | 0.51 | 98 | 1013.9 |
| 20260510034529 | 45 | 136 | 6.0 | 9.0 | 0.00 | 0.51 | 0.51 | 98 | 1013.9 |
| 20260510034018 | 45 | 138 | 5.0 | 9.0 | 0.00 | 0.51 | 0.51 | 98 | 1013.9 |
| 20260510033512 | 45 | 165 | 4.0 | 9.0 | 0.00 | 0.51 | 0.51 | 98 | 1014.0 |
| 20260510033042 | 45 | 165 | 4.0 | 9.0 | 0.00 | 0.51 | 0.51 | 98 | 1014.0 |
| 20260510032510 | 45 | 158 | 3.0 | 7.0 | 0.00 | 0.51 | 0.51 | 98 | 1014.2 |
| 20260510032014 | 44 | 186 | 3.0 | 14.0 | 0.01 | 0.51 | 0.51 | 98 | 1014.3 |
| 20260510031532 | 44 | 191 | 4.0 | 14.0 | 0.01 | 0.51 | 0.51 | 98 | 1014.4 |
| 20260510031013 | 44 | 192 | 5.0 | 14.0 | 0.01 | 0.51 | 0.51 | 98 | 1014.4 |
| 20260510030512 | 44 | 194 | 2.0 | 5.0 | 0.02 | 0.51 | 0.51 | 98 | 1014.5 |
| 20260510030029 | 44 | 197 | 1.0 | 4.0 | 0.02 | 0.51 | 0.51 | 98 | 1014.5 |
| 20260510025515 | 44 | 198 | 2.0 | 6.0 | 0.03 | 0.51 | 0.51 | 98 | 1014.5 |
| 20260510025012 | 44 | 188 | 0.0 | 10.0 | 0.03 | 0.51 | 0.51 | 98 | 1014.5 |
| 20260510024532 | 44 | 0 | 2.0 | 10.0 | 0.03 | 0.51 | 0.51 | 98 | 1014.6 |
| 20260510024011 | 44 | 207 | 2.0 | 9.0 | 0.03 | 0.51 | 0.51 | 97 | 1014.6 |
| 20260510023512 | 44 | 254 | 4.0 | 7.0 | 0.03 | 0.51 | 0.51 | 98 | 1014.5 |
| 20260510023031 | 44 | 0 | 0.0 | 6.0 | 0.03 | 0.51 | 0.51 | 98 | 1014.6 |
| 20260510022511 | 43 | 113 | 2.0 | 6.0 | 0.03 | 0.51 | 0.51 | 98 | 1014.4 |
| 20260510022016 | 43 | 97 | 2.0 | 6.0 | 0.02 | 0.50 | 0.50 | 98 | 1014.5 |
| 20260510021606 | 43 | 100 | 3.0 | 6.0 | 0.02 | 0.50 | 0.50 | 98 | 1014.5 |
| 20260510021011 | 43 | 107 | 3.0 | 6.0 | 0.02 | 0.50 | 0.50 | 97 | 1014.7 |
| 20260510020511 | 43 | 99 | 2.0 | 6.0 | 0.01 | 0.49 | 0.49 | 97 | 1014.7 |
| 20260510020031 | 43 | 136 | 0.0 | 4.0 | 0.01 | 0.49 | 0.49 | 97 | 1014.7 |
| 20260510015513 | 43 | 0 | 1.0 | 4.0 | 0.00 | 0.48 | 0.48 | 97 | 1014.8 |
| 20260510015011 | 43 | 0 | 0.0 | 2.0 | 0.00 | 0.48 | 0.48 | 97 | 1014.9 |
| 20260510014545 | 43 | 137 | 0.0 | 7.0 | 0.00 | 0.48 | 0.48 | 97 | 1014.9 |
| 20260510014011 | 43 | 0 | 0.0 | 7.0 | 0.01 | 0.48 | 0.48 | 97 | 1014.9 |
| 20260510013512 | 43 | 87 | 4.0 | 7.0 | 0.01 | 0.48 | 0.48 | 97 | 1014.8 |
| 20260510013033 | 43 | 70 | 3.0 | 5.0 | 0.01 | 0.48 | 0.48 | 97 | 1014.6 |
| 20260510012513 | 42 | 321 | 2.0 | 6.0 | 0.01 | 0.48 | 0.48 | 97 | 1014.9 |
| 20260510012014 | 42 | 86 | 2.0 | 7.0 | 0.01 | 0.48 | 0.48 | 97 | 1014.7 |
| 20260510011531 | 42 | 100 | 1.0 | 11.0 | 0.01 | 0.48 | 0.48 | 97 | 1014.7 |
| 20260510011010 | 42 | 76 | 3.0 | 11.0 | 0.01 | 0.48 | 0.48 | 97 | 1014.6 |
| 20260510010513 | 42 | 98 | 7.0 | 11.0 | 0.01 | 0.48 | 0.48 | 97 | 1014.5 |
| 20260510010042 | 42 | 61 | 5.0 | 11.0 | 0.01 | 0.48 | 0.48 | 97 | 1014.6 |
| 20260510005515 | 42 | 60 | 7.0 | 11.0 | 0.01 | 0.48 | 0.48 | 97 | 1014.5 |
| 20260510005014 | 42 | 0 | 2.0 | 11.0 | 0.01 | 0.48 | 0.48 | 97 | 1014.4 |
| 20260510004531 | 42 | 65 | 5.0 | 14.0 | 0.01 | 0.48 | 0.48 | 97 | 1014.4 |
| 20260510004012 | 42 | 100 | 8.0 | 15.0 | 0.00 | 0.47 | 0.47 | 97 | 1014.4 |
| 20260510003512 | 42 | 360 | 1.0 | 15.0 | 0.00 | 0.47 | 0.47 | 97 | 1014.4 |
| 20260510003030 | 42 | 87 | 10.0 | 15.0 | 0.00 | 0.47 | 0.47 | 97 | 1014.3 |
| 20260510002513 | 42 | 121 | 4.0 | 14.0 | 0.01 | 0.47 | 0.47 | 97 | 1014.2 |
| 20260510002013 | 42 | 83 | 9.0 | 14.0 | 0.01 | 0.47 | 0.47 | 97 | 1014.1 |
| 20260510001533 | 42 | 360 | 9.0 | 14.0 | 0.01 | 0.47 | 0.47 | 97 | 1014.1 |
| 20260510001011 | 42 | 360 | 7.0 | 16.0 | 0.01 | 0.47 | 0.47 | 97 | 1014.0 |
| 20260510000514 | 42 | 360 | 9.0 | 16.0 | 0.01 | 0.47 | 0.47 | 97 | 1013.8 |
| 20260510000030 | 42 | 84 | 11.0 | 18.0 | 0.01 | 0.47 | 0.47 | 97 | 1013.7 |
| 20260509235511 | 42 | 360 | 10.0 | 19.0 | 0.02 | 0.47 | 0.47 | 97 | 1013.7 |
| 20260509235010 | 42 | 112 | 13.0 | 19.0 | 0.02 | 0.47 | 0.47 | 97 | 1013.8 |
| 20260509234529 | 42 | 107 | 10.0 | 20.0 | 0.02 | 0.47 | 0.47 | 97 | 1013.7 |
| 20260509234014 | 42 | 88 | 12.0 | 20.0 | 0.02 | 0.47 | 0.47 | 97 | 1013.7 |
| 20260509233511 | 42 | 92 | 11.0 | 19.0 | 0.02 | 0.47 | 0.47 | 97 | 1013.8 |
| 20260509233033 | 42 | 96 | 12.0 | 19.0 | 0.03 | 0.47 | 0.47 | 97 | 1013.9 |
| 20260509232514 | 42 | 97 | 9.0 | 18.0 | 0.02 | 0.46 | 0.46 | 96 | 1014.0 |
| 20260509232014 | 42 | 82 | 10.0 | 18.0 | 0.04 | 0.46 | 0.46 | 97 | 1014.0 |
| 20260509231530 | 42 | 101 | 10.0 | 17.0 | 0.04 | 0.46 | 0.46 | 97 | 1014.1 |
| 20260509231011 | 42 | 115 | 11.0 | 17.0 | 0.05 | 0.46 | 0.46 | 97 | 1014.2 |
| 20260509230512 | 42 | 92 | 7.0 | 15.0 | 0.06 | 0.46 | 0.46 | 97 | 1014.3 |
| 20260509230037 | 42 | 94 | 7.0 | 13.0 | 0.06 | 0.46 | 0.46 | 96 | 1014.3 |
| 20260509225512 | 42 | 114 | 8.0 | 13.0 | 0.06 | 0.45 | 0.45 | 96 | 1014.3 |
| 20260509225011 | 42 | 98 | 7.0 | 13.0 | 0.06 | 0.45 | 0.45 | 96 | 1014.4 |
| 20260509224530 | 42 | 87 | 9.0 | 13.0 | 0.07 | 0.45 | 0.45 | 96 | 1014.4 |
| 20260509224011 | 42 | 96 | 5.0 | 12.0 | 0.07 | 0.45 | 0.45 | 96 | 1014.6 |
| 20260509223513 | 42 | 82 | 7.0 | 12.0 | 0.07 | 0.45 | 0.45 | 96 | 1014.5 |
| 20260509223030 | 42 | 96 | 8.0 | 12.0 | 0.06 | 0.44 | 0.44 | 96 | 1014.5 |
| 20260509222512 | 42 | 112 | 1.0 | 10.0 | 0.06 | 0.43 | 0.43 | 96 | 1014.9 |
| 20260509222046 | 42 | 113 | 6.0 | 12.0 | 0.05 | 0.42 | 0.42 | 96 | 1014.7 |
| 20260509221529 | 42 | 119 | 6.0 | 12.0 | 0.05 | 0.41 | 0.41 | 96 | 1014.6 |
| 20260509221012 | 42 | 66 | 7.0 | 15.0 | 0.05 | 0.41 | 0.41 | 96 | 1014.5 |